createdAt,value
2022-10-09T00:01:20.079Z,1.80
2022-10-09T00:03:49.348Z,1.70
2022-10-09T00:06:22.953Z,1.60
2022-10-09T00:08:49.963Z,1.60
2022-10-09T00:11:26.598Z,1.70
2022-10-09T00:13:54.716Z,1.90
2022-10-09T00:16:26.978Z,2.00
2022-10-09T00:18:54.470Z,2.10
2022-10-09T00:21:22.944Z,2.10
2022-10-09T00:23:51.041Z,2.10
2022-10-09T00:26:20.554Z,1.90
2022-10-09T00:28:48.486Z,1.70
2022-10-09T00:31:16.780Z,1.60
2022-10-09T00:33:43.573Z,1.30
2022-10-09T00:36:15.697Z,1.10
2022-10-09T00:38:43.249Z,1.10
2022-10-09T00:41:14.579Z,1.10
2022-10-09T00:43:50.429Z,1.30
2022-10-09T00:46:24.110Z,1.40
2022-10-09T00:48:59.102Z,1.30
2022-10-09T00:51:30.481Z,1.10
2022-10-09T00:53:57.558Z,1.00
2022-10-09T00:56:25.826Z,0.80
2022-10-09T00:58:56.155Z,0.70
2022-10-09T01:01:23.097Z,0.60
2022-10-09T01:03:49.830Z,0.50
2022-10-09T01:06:34.554Z,0.50
2022-10-09T01:09:09.193Z,0.40
2022-10-09T01:12:02.392Z,0.40
2022-10-09T01:14:37.863Z,0.30
2022-10-09T01:17:24.757Z,0.30
2022-10-09T01:19:56.762Z,0.10
2022-10-09T01:23:10.096Z,0.20
2022-10-09T01:26:12.707Z,0.30
2022-10-09T01:28:42.181Z,0.40
2022-10-09T01:31:10.817Z,0.50
2022-10-09T01:33:43.268Z,0.50
2022-10-09T01:36:11.161Z,0.50
2022-10-09T01:38:40.209Z,0.50
2022-10-09T01:41:08.718Z,0.70
2022-10-09T01:43:35.744Z,0.80
2022-10-09T01:46:19.723Z,0.70
2022-10-09T01:48:59.492Z,0.70
2022-10-09T01:51:32.109Z,0.60
2022-10-09T01:54:02.163Z,0.60
2022-10-09T01:56:31.902Z,0.80
2022-10-09T01:59:02.162Z,0.70
2022-10-09T02:01:35.474Z,0.80
2022-10-09T02:04:07.458Z,0.70
2022-10-09T02:06:40.068Z,0.80
2022-10-09T02:09:12.324Z,0.80
2022-10-09T02:11:44.008Z,0.90
2022-10-09T02:14:10.806Z,0.90
2022-10-09T02:16:46.917Z,0.90
2022-10-09T02:19:31.629Z,0.90
2022-10-09T02:22:05.718Z,1.00
2022-10-09T02:24:33.300Z,0.90
2022-10-09T02:27:02.203Z,0.80
2022-10-09T02:29:29.192Z,0.80
2022-10-09T02:31:56.346Z,0.80
2022-10-09T02:34:23.350Z,0.90
2022-10-09T02:36:50.274Z,0.90
2022-10-09T02:39:17.078Z,1.00
2022-10-09T02:41:43.762Z,0.90
2022-10-09T02:44:10.684Z,0.80
2022-10-09T02:46:41.860Z,0.90
2022-10-09T02:49:08.681Z,0.80
2022-10-09T02:51:37.745Z,0.80
2022-10-09T02:54:07.346Z,0.90
2022-10-09T02:56:38.529Z,0.90
2022-10-09T02:59:05.977Z,0.90
2022-10-09T03:01:32.767Z,0.80
2022-10-09T03:03:59.590Z,0.80
2022-10-09T03:06:27.691Z,0.60
2022-10-09T03:08:56.824Z,0.70
2022-10-09T03:11:25.139Z,0.60
2022-10-09T03:13:54.490Z,0.60
2022-10-09T03:16:24.022Z,0.60
2022-10-09T03:18:52.053Z,0.50
2022-10-09T03:21:28.640Z,0.40
2022-10-09T03:23:55.755Z,0.40
2022-10-09T03:26:27.437Z,0.40
2022-10-09T03:28:54.993Z,0.30
2022-10-09T03:31:51.918Z,0.30
2022-10-09T03:34:14.322Z,0.40
2022-10-09T03:36:43.619Z,0.30
2022-10-09T03:39:10.575Z,0.30
2022-10-09T03:41:37.266Z,0.20
2022-10-09T03:44:04.061Z,0.20
2022-10-09T03:46:30.813Z,0.30
2022-10-09T03:48:57.528Z,0.30
2022-10-09T03:51:24.278Z,0.20
2022-10-09T03:53:51.046Z,0.30
2022-10-09T03:56:18.146Z,0.30
2022-10-09T03:58:44.963Z,0.40
2022-10-09T04:01:11.737Z,0.40
2022-10-09T04:03:38.484Z,0.60
2022-10-09T04:06:05.513Z,0.60
2022-10-09T04:08:32.257Z,0.50
2022-10-09T04:11:00.114Z,0.60
2022-10-09T04:13:27.296Z,0.50
2022-10-09T04:15:56.784Z,0.60
2022-10-09T04:18:24.529Z,0.50
2022-10-09T04:20:55.941Z,0.40
2022-10-09T04:23:26.021Z,0.40
2022-10-09T04:26:00.076Z,0.50
2022-10-09T04:28:28.192Z,0.60
2022-10-09T04:30:55.383Z,0.50
2022-10-09T04:33:22.082Z,0.50
2022-10-09T04:35:51.636Z,0.60
2022-10-09T04:38:19.327Z,0.60
2022-10-09T04:40:56.080Z,0.60
2022-10-09T04:43:26.035Z,0.60
2022-10-09T04:45:53.234Z,0.70
2022-10-09T04:48:25.607Z,0.70
2022-10-09T04:50:52.358Z,0.70
2022-10-09T04:53:19.113Z,0.80
2022-10-09T04:55:46.336Z,0.70
2022-10-09T04:58:15.184Z,0.70
2022-10-09T05:00:43.505Z,0.80
2022-10-09T05:03:11.102Z,0.80
2022-10-09T05:05:38.175Z,0.70
2022-10-09T05:08:07.187Z,0.80
2022-10-09T05:10:34.022Z,0.80
2022-10-09T05:13:00.761Z,0.80
2022-10-09T05:15:27.599Z,0.70
2022-10-09T05:17:54.372Z,0.80
2022-10-09T05:20:21.246Z,0.70
2022-10-09T05:22:48.668Z,0.70
2022-10-09T05:25:18.037Z,0.70
2022-10-09T05:27:44.761Z,0.60
2022-10-09T05:30:11.716Z,0.60
2022-10-09T05:32:41.312Z,0.50
2022-10-09T05:35:08.462Z,0.50
2022-10-09T05:37:35.235Z,0.50
2022-10-09T05:40:09.734Z,0.40
2022-10-09T05:42:38.806Z,0.50
2022-10-09T05:45:11.316Z,0.30
2022-10-09T05:47:38.052Z,0.50
2022-10-09T05:50:05.219Z,0.50
2022-10-09T05:52:31.972Z,0.50
2022-10-09T05:54:58.647Z,0.40
2022-10-09T05:57:26.178Z,0.50
2022-10-09T05:59:52.953Z,0.50
2022-10-09T06:02:22.344Z,0.60
2022-10-09T06:04:51.792Z,0.60
2022-10-09T06:07:18.465Z,0.70
2022-10-09T06:09:45.276Z,0.90
2022-10-09T06:12:11.956Z,1.10
2022-10-09T06:14:38.674Z,1.10
2022-10-09T06:17:07.983Z,1.20
2022-10-09T06:19:37.052Z,1.20
2022-10-09T06:22:06.084Z,1.30
2022-10-09T06:24:35.140Z,1.30
2022-10-09T06:27:01.998Z,1.30
2022-10-09T06:29:30.046Z,1.40
2022-10-09T06:31:57.183Z,1.30
2022-10-09T06:34:24.142Z,1.40
2022-10-09T06:36:51.678Z,1.40
2022-10-09T06:39:20.803Z,1.40
2022-10-09T06:41:47.646Z,1.40
2022-10-09T06:44:37.229Z,1.40
2022-10-09T06:47:06.104Z,1.40
2022-10-09T06:49:33.532Z,1.50
2022-10-09T06:52:00.436Z,1.40
2022-10-09T06:54:27.205Z,1.50
2022-10-09T06:56:55.461Z,1.40
2022-10-09T06:59:22.272Z,1.50
2022-10-09T07:01:49.062Z,1.50
2022-10-09T07:04:17.692Z,1.50
2022-10-09T07:06:47.532Z,1.50
2022-10-09T07:09:16.049Z,1.60
2022-10-09T07:11:45.747Z,1.60
2022-10-09T07:14:20.737Z,1.60
2022-10-09T07:16:48.843Z,1.70
2022-10-09T07:19:17.560Z,1.80
2022-10-09T07:21:49.182Z,1.90
2022-10-09T07:24:20.467Z,2.00
2022-10-09T07:26:50.609Z,2.00
2022-10-09T07:29:19.845Z,2.20
2022-10-09T07:31:47.225Z,2.40
2022-10-09T07:34:14.342Z,2.50
2022-10-09T07:36:41.049Z,2.50
2022-10-09T07:39:08.345Z,2.60
2022-10-09T07:41:35.347Z,2.80
2022-10-09T07:44:02.042Z,2.90
2022-10-09T07:46:33.247Z,3.10
2022-10-09T07:49:00.913Z,3.20
2022-10-09T07:51:29.181Z,3.30
2022-10-09T07:53:57.169Z,3.30
2022-10-09T07:56:29.515Z,3.40
2022-10-09T07:59:05.809Z,3.60
2022-10-09T08:01:33.841Z,3.70
2022-10-09T08:04:01.657Z,3.80
2022-10-09T08:06:28.909Z,4.00
2022-10-09T08:09:01.889Z,4.20
2022-10-09T08:11:29.734Z,4.20
2022-10-09T08:13:56.771Z,4.40
2022-10-09T08:16:25.367Z,4.40
2022-10-09T08:18:59.887Z,4.50
2022-10-09T08:21:28.403Z,4.60
2022-10-09T08:23:57.410Z,4.70
2022-10-09T08:26:26.269Z,4.90
2022-10-09T08:29:00.578Z,5.00
2022-10-09T08:31:31.606Z,5.20
2022-10-09T08:34:01.897Z,5.30
2022-10-09T08:36:29.945Z,5.50
2022-10-09T08:38:56.678Z,5.60
2022-10-09T08:41:48.292Z,5.90
2022-10-09T08:44:25.998Z,6.00
2022-10-09T08:47:17.676Z,6.20
2022-10-09T08:49:49.256Z,6.40
2022-10-09T08:52:37.055Z,6.40
2022-10-09T08:55:22.796Z,6.60
2022-10-09T08:58:00.869Z,6.80
2022-10-09T09:00:36.171Z,7.10
2022-10-09T09:03:21.628Z,7.30
2022-10-09T09:06:09.739Z,7.50
2022-10-09T09:08:53.946Z,7.50
2022-10-09T09:12:03.781Z,7.60
2022-10-09T09:14:51.114Z,7.70
2022-10-09T09:17:53.996Z,7.90
2022-10-09T09:20:50.324Z,8.10
2022-10-09T09:23:18.095Z,8.30
2022-10-09T09:25:46.140Z,8.60
2022-10-09T09:28:22.785Z,8.70
2022-10-09T09:31:06.110Z,9.00
2022-10-09T09:33:44.999Z,9.10
2022-10-09T09:36:23.667Z,9.10
2022-10-09T09:39:36.246Z,9.20
2022-10-09T09:41:42.036Z,9.60
2022-10-09T09:44:14.283Z,10.00
2022-10-09T09:46:43.509Z,10.20
2022-10-09T09:49:23.812Z,10.40
2022-10-09T09:51:51.345Z,10.60
2022-10-09T09:54:18.409Z,10.60
2022-10-09T09:59:41.842Z,10.70
2022-10-09T10:02:27.791Z,10.60
2022-10-09T10:05:21.971Z,10.70
2022-10-09T10:07:52.593Z,10.80
2022-10-09T10:10:26.632Z,11.00
2022-10-09T10:12:57.898Z,11.10
2022-10-09T10:15:33.884Z,11.30
2022-10-09T10:18:16.658Z,11.30
2022-10-09T10:20:49.584Z,11.30
2022-10-09T10:23:31.379Z,11.40
2022-10-09T10:26:00.395Z,11.50
2022-10-09T10:28:38.457Z,11.40
2022-10-09T10:31:13.139Z,11.50
2022-10-09T10:33:41.956Z,11.70
2022-10-09T10:36:10.978Z,11.80
2022-10-09T10:38:48.719Z,11.80
2022-10-09T10:41:27.893Z,11.90
2022-10-09T10:44:02.273Z,12.10
2022-10-09T10:46:37.288Z,12.10
2022-10-09T10:49:05.044Z,12.00
2022-10-09T10:51:46.919Z,12.50
2022-10-09T10:54:23.853Z,12.60
2022-10-09T10:57:09.062Z,13.10
2022-10-09T10:59:54.223Z,13.90
2022-10-09T11:02:42.338Z,14.00
2022-10-09T11:05:12.191Z,14.40
2022-10-09T11:08:05.581Z,14.70
2022-10-09T11:10:50.885Z,15.50
2022-10-09T11:14:03.273Z,15.70
2022-10-09T11:16:43.551Z,15.70
2022-10-09T11:19:25.358Z,16.30
2022-10-09T11:22:25.377Z,16.50
2022-10-09T11:25:03.155Z,16.70
2022-10-09T11:27:54.726Z,16.70
2022-10-09T11:30:22.490Z,16.40
2022-10-09T11:32:59.778Z,16.40
2022-10-09T11:35:58.509Z,16.80
2022-10-09T11:38:45.956Z,17.20
2022-10-09T11:41:13.211Z,17.40
2022-10-09T11:44:01.726Z,17.40
2022-10-09T11:47:09.910Z,17.30
2022-10-09T11:49:59.885Z,17.50
2022-10-09T11:52:51.426Z,17.90
2022-10-09T11:55:19.625Z,18.00
2022-10-09T11:57:46.939Z,18.20
2022-10-09T12:00:17.109Z,18.20
2022-10-09T12:02:44.302Z,18.10
2022-10-09T12:05:44.865Z,17.90
2022-10-09T12:08:19.550Z,17.40
2022-10-09T12:11:12.356Z,16.50
2022-10-09T12:13:39.173Z,15.80
2022-10-09T12:16:08.702Z,15.30
2022-10-09T12:18:46.839Z,14.80
2022-10-09T12:21:27.932Z,14.50
2022-10-09T12:23:55.103Z,14.20
2022-10-09T12:26:25.762Z,14.00
2022-10-09T12:28:57.549Z,13.80
2022-10-09T12:31:38.441Z,13.90
2022-10-09T12:34:13.295Z,13.80
2022-10-09T12:36:40.041Z,13.70
2022-10-09T12:39:14.471Z,13.70
2022-10-09T12:41:44.810Z,13.50
2022-10-09T12:44:36.333Z,13.60
2022-10-09T12:47:07.000Z,13.70
2022-10-09T12:49:34.835Z,13.70
2022-10-09T12:52:02.224Z,13.70
2022-10-09T12:54:31.356Z,13.60
2022-10-09T12:56:59.776Z,13.70
2022-10-09T12:59:28.582Z,13.70
2022-10-09T13:01:58.823Z,13.60
2022-10-09T13:04:33.663Z,13.70
2022-10-09T13:07:06.572Z,13.80
2022-10-09T13:09:37.121Z,13.80
2022-10-09T13:12:09.732Z,13.80
2022-10-09T13:14:47.993Z,13.70
2022-10-09T13:17:29.565Z,13.60
2022-10-09T13:20:18.113Z,13.60
2022-10-09T13:23:00.031Z,13.60
2022-10-09T13:25:38.555Z,13.60
2022-10-09T13:28:05.390Z,13.60
2022-10-09T13:30:32.833Z,13.60
2022-10-09T13:32:59.686Z,13.70
2022-10-09T13:35:26.623Z,13.60
2022-10-09T13:37:53.638Z,13.50
2022-10-09T13:40:22.731Z,13.50
2022-10-09T13:42:56.131Z,13.50
2022-10-09T13:45:23.484Z,13.50
2022-10-09T13:47:50.310Z,13.60
2022-10-09T13:50:18.040Z,13.70
2022-10-09T13:52:44.761Z,13.70
2022-10-09T13:55:11.913Z,13.70
2022-10-09T13:57:38.796Z,13.60
2022-10-09T14:00:09.614Z,13.60
2022-10-09T14:02:39.299Z,13.50
2022-10-09T14:05:06.372Z,13.50
2022-10-09T14:07:33.083Z,13.50
2022-10-09T14:10:01.949Z,13.50
2022-10-09T14:12:28.635Z,13.50
2022-10-09T14:14:55.709Z,13.60
2022-10-09T14:17:22.491Z,13.40
2022-10-09T14:19:49.192Z,13.40
2022-10-09T14:22:18.261Z,13.40
2022-10-09T14:24:45.021Z,13.40
2022-10-09T14:27:11.760Z,13.40
2022-10-09T14:29:38.636Z,13.30
2022-10-09T14:32:05.926Z,13.30
2022-10-09T14:34:32.860Z,13.40
2022-10-09T14:36:59.592Z,13.40
2022-10-09T14:39:26.343Z,13.30
2022-10-09T14:41:53.151Z,13.20
2022-10-09T14:44:19.870Z,13.30
2022-10-09T14:46:46.566Z,13.10
2022-10-09T14:49:13.376Z,13.10
2022-10-09T14:51:41.396Z,13.10
2022-10-09T14:54:10.705Z,13.10
2022-10-09T14:56:37.452Z,13.00
2022-10-09T14:59:05.984Z,13.00
2022-10-09T15:01:34.050Z,12.90
2022-10-09T15:04:01.711Z,13.00
2022-10-09T15:06:28.765Z,12.90
2022-10-09T15:09:03.049Z,12.90
2022-10-09T15:11:32.516Z,12.90
2022-10-09T15:13:59.358Z,12.70
2022-10-09T15:16:28.886Z,12.70
2022-10-09T15:18:56.270Z,12.70
2022-10-09T15:21:29.238Z,12.70
2022-10-09T15:23:57.901Z,12.70
2022-10-09T15:26:26.421Z,12.80
2022-10-09T15:28:53.230Z,12.70
2022-10-09T15:31:32.100Z,12.50
2022-10-09T15:34:02.622Z,12.30
2022-10-09T15:36:33.380Z,12.00
2022-10-09T15:39:05.391Z,12.00
2022-10-09T15:41:34.552Z,12.00
2022-10-09T15:44:04.276Z,12.00
2022-10-09T15:46:31.521Z,12.10
2022-10-09T15:48:58.335Z,12.20
2022-10-09T15:51:25.487Z,12.20
2022-10-09T15:53:53.107Z,12.10
2022-10-09T15:56:22.956Z,12.10
2022-10-09T15:58:50.547Z,12.10
2022-10-09T16:01:17.992Z,11.90
2022-10-09T16:03:45.670Z,12.00
2022-10-09T16:06:15.773Z,11.80
2022-10-09T16:08:43.200Z,11.70
2022-10-09T16:11:12.168Z,11.50
2022-10-09T16:13:40.986Z,11.50
2022-10-09T16:16:12.029Z,11.30
2022-10-09T16:18:38.831Z,11.30
2022-10-09T16:21:14.798Z,11.20
2022-10-09T16:23:42.979Z,10.90
2022-10-09T16:26:11.086Z,10.80
2022-10-09T16:28:38.183Z,10.60
2022-10-09T16:31:07.088Z,10.20
2022-10-09T16:33:34.030Z,9.90
2022-10-09T16:36:12.044Z,9.70
2022-10-09T16:38:40.488Z,9.50
2022-10-09T16:41:13.143Z,9.20
2022-10-09T16:43:48.825Z,9.00
2022-10-09T16:46:20.732Z,8.80
2022-10-09T16:48:52.382Z,8.50
2022-10-09T16:51:31.194Z,8.30
2022-10-09T16:54:02.770Z,8.10
2022-10-09T16:56:35.347Z,7.90
2022-10-09T16:59:05.731Z,7.70
2022-10-09T17:01:35.306Z,7.50
2022-10-09T17:04:02.153Z,7.40
2022-10-09T17:06:28.925Z,7.30
2022-10-09T17:08:58.019Z,7.10
2022-10-09T17:11:29.604Z,7.00
2022-10-09T17:13:57.171Z,6.90
2022-10-09T17:16:27.362Z,6.80
2022-10-09T17:18:54.930Z,6.80
2022-10-09T17:21:22.271Z,6.70
2022-10-09T17:23:56.981Z,6.50
2022-10-09T17:26:25.920Z,6.40
2022-10-09T17:28:53.664Z,6.30
2022-10-09T17:31:23.372Z,6.20
2022-10-09T17:33:55.170Z,6.10
2022-10-09T17:36:24.149Z,6.00
2022-10-09T17:38:53.724Z,5.80
2022-10-09T17:41:23.527Z,5.90
2022-10-09T17:43:53.790Z,5.80
2022-10-09T17:46:22.316Z,5.80
2022-10-09T17:48:56.723Z,5.80
2022-10-09T17:51:39.557Z,5.90
2022-10-09T17:54:12.023Z,5.90
2022-10-09T17:56:39.853Z,5.90
2022-10-09T17:59:07.212Z,5.90
2022-10-09T18:01:34.330Z,5.80
2022-10-09T18:04:01.096Z,5.80
2022-10-09T18:06:33.834Z,5.70
2022-10-09T18:09:00.833Z,5.70
2022-10-09T18:11:30.719Z,5.70
2022-10-09T18:13:58.041Z,5.60
2022-10-09T18:16:35.441Z,5.70
2022-10-09T18:19:07.577Z,5.60
2022-10-09T18:21:35.172Z,5.60
2022-10-09T18:24:04.422Z,5.60
2022-10-09T18:26:31.493Z,5.60
2022-10-09T18:28:59.713Z,5.50
2022-10-09T18:31:28.677Z,5.40
2022-10-09T18:33:56.432Z,5.30
2022-10-09T18:36:25.951Z,5.20
2022-10-09T18:38:59.213Z,5.20
2022-10-09T18:41:25.896Z,5.20
2022-10-09T18:43:59.744Z,5.20
2022-10-09T18:46:28.926Z,5.20
2022-10-09T18:48:56.677Z,5.30
2022-10-09T18:51:26.908Z,5.40
2022-10-09T18:53:57.976Z,5.20
2022-10-09T18:56:24.977Z,5.20
2022-10-09T18:58:53.351Z,5.20
2022-10-09T19:01:20.290Z,5.10
2022-10-09T19:03:50.059Z,5.10
2022-10-09T19:06:18.721Z,5.00
2022-10-09T19:08:46.450Z,4.80
2022-10-09T19:11:14.365Z,4.80
2022-10-09T19:13:46.681Z,4.60
2022-10-09T19:16:13.422Z,4.60
2022-10-09T19:18:40.175Z,4.40
2022-10-09T19:21:07.161Z,4.40
2022-10-09T19:23:34.174Z,4.30
2022-10-09T19:26:00.912Z,4.30
2022-10-09T19:28:37.032Z,4.20
2022-10-09T19:31:09.473Z,4.30
2022-10-09T19:33:37.959Z,4.20
2022-10-09T19:36:05.971Z,4.10
2022-10-09T19:38:36.551Z,4.00
2022-10-09T19:41:10.632Z,3.80
2022-10-09T19:43:39.968Z,3.80
2022-10-09T19:46:17.115Z,3.80
2022-10-09T19:48:44.584Z,3.70
2022-10-09T19:51:15.192Z,3.70
2022-10-09T19:53:44.925Z,3.80
2022-10-09T19:56:16.960Z,3.80
2022-10-09T19:58:48.359Z,3.70
2022-10-09T20:01:17.584Z,3.70
2022-10-09T20:03:44.987Z,3.60
2022-10-09T20:06:12.131Z,3.50
2022-10-09T20:08:42.895Z,3.30
2022-10-09T20:11:11.403Z,3.20
2022-10-09T20:13:39.633Z,3.00
2022-10-09T20:16:11.866Z,3.00
2022-10-09T20:18:42.277Z,2.80
2022-10-09T20:21:14.080Z,2.90
2022-10-09T20:23:44.213Z,2.90
2022-10-09T20:26:19.491Z,2.90
2022-10-09T20:28:47.532Z,2.90
2022-10-09T20:31:20.576Z,3.00
2022-10-09T20:33:48.713Z,3.00
2022-10-09T20:36:32.398Z,3.20
2022-10-09T20:39:01.236Z,3.20
2022-10-09T20:41:31.602Z,3.30
2022-10-09T20:44:00.799Z,3.40
2022-10-09T20:46:30.176Z,3.30
2022-10-09T20:48:57.012Z,3.40
2022-10-09T20:51:26.170Z,3.40
2022-10-09T20:53:55.912Z,3.50
2022-10-09T20:56:24.738Z,3.50
2022-10-09T20:58:52.218Z,3.60
2022-10-09T21:01:19.218Z,3.70
2022-10-09T21:03:51.267Z,3.80
2022-10-09T21:06:20.760Z,3.90
2022-10-09T21:08:47.616Z,3.80
2022-10-09T21:11:18.150Z,3.80
2022-10-09T21:13:48.178Z,3.70
2022-10-09T21:16:20.947Z,3.60
2022-10-09T21:18:53.966Z,3.50
2022-10-09T21:21:22.915Z,3.40
2022-10-09T21:23:54.916Z,3.50
2022-10-09T21:26:23.190Z,3.40
2022-10-09T21:28:50.150Z,3.50
2022-10-09T21:31:20.493Z,3.30
2022-10-09T21:33:47.570Z,3.50
2022-10-09T21:36:37.505Z,3.60
2022-10-09T21:39:07.748Z,3.60
2022-10-09T21:41:38.052Z,3.40
2022-10-09T21:44:06.431Z,3.40
2022-10-09T21:46:37.053Z,3.50
2022-10-09T21:49:07.527Z,3.60
2022-10-09T21:51:35.782Z,3.70
2022-10-09T21:54:04.936Z,3.80
2022-10-09T21:56:31.675Z,3.90
2022-10-09T21:58:58.406Z,3.90
2022-10-09T22:01:25.140Z,3.90
2022-10-09T22:03:52.367Z,3.90
2022-10-09T22:06:19.658Z,3.90
2022-10-09T22:08:48.893Z,3.90
2022-10-09T22:11:17.855Z,3.90
2022-10-09T22:13:44.921Z,3.90
2022-10-09T22:16:13.852Z,3.80
2022-10-09T22:18:40.805Z,3.90
2022-10-09T22:21:12.771Z,3.90
2022-10-09T22:23:39.872Z,3.90
2022-10-09T22:26:10.451Z,3.90
2022-10-09T22:28:39.448Z,3.80
2022-10-09T22:31:20.520Z,3.80
2022-10-09T22:34:05.235Z,3.70
2022-10-09T22:36:33.403Z,3.80
2022-10-09T22:39:03.525Z,3.70
2022-10-09T22:41:34.255Z,3.70
2022-10-09T22:44:02.202Z,3.60
2022-10-09T22:46:41.074Z,3.50
2022-10-09T22:49:13.521Z,3.40
2022-10-09T22:51:43.106Z,3.40
2022-10-09T22:54:11.983Z,3.30
2022-10-09T22:56:41.437Z,3.30
2022-10-09T22:59:09.476Z,3.10
2022-10-09T23:01:40.009Z,3.10
2022-10-09T23:04:10.501Z,3.00
2022-10-09T23:06:37.372Z,2.80
2022-10-09T23:09:06.558Z,2.70
2022-10-09T23:11:33.888Z,2.50
2022-10-09T23:14:01.180Z,2.20
2022-10-09T23:16:30.357Z,2.10
2022-10-09T23:18:58.298Z,1.90
2022-10-09T23:21:26.178Z,1.80
2022-10-09T23:23:54.229Z,1.80
2022-10-09T23:26:24.099Z,1.90
2022-10-09T23:28:56.735Z,1.80
2022-10-09T23:31:28.323Z,1.70
2022-10-09T23:33:56.393Z,1.70
2022-10-09T23:36:25.711Z,1.70
2022-10-09T23:38:55.523Z,1.70
2022-10-09T23:41:24.585Z,1.60
2022-10-09T23:43:51.573Z,1.50
2022-10-09T23:46:22.079Z,1.40
2022-10-09T23:48:50.679Z,1.20
2022-10-09T23:51:19.376Z,1.10
2022-10-09T23:53:46.464Z,1.10
2022-10-09T23:56:23.630Z,1.10
2022-10-09T23:58:51.340Z,1.10
